TAR442 DTTA-DTTJ
Flight info
| Callsign | TAR442 |
|---|---|
| Flight time | 0h 44m |
| Altitude | 23000 |
| Route | GIBLI2A GIBLI A411 MON UA411 ELJEM A411 SFX UA411 JBA |
| Aircraft | A320/M-SDE3FGHIRWY/LB1 |
Departure
| Time | 2026-05-08 16:59 |
|---|---|
| Airport | Tunis Carthage International Airport (DTTA) |
Arrival
| Time | 2026-05-08 17:43 |
|---|---|
| Airport | Djerba Zarzis International Airport (DTTJ) |
| Time | Latitude | Longitude | Altitude | Speed | Heading |
|---|---|---|---|---|---|
| 2026-05-08 16:37 | 36.84540 | 10.21835 | 31 ft | 0 kts | 41° |
| 2026-05-08 16:51 | 36.84532 | 10.21827 | 8 ft | 4 kts | 41° |
| 2026-05-08 16:51 | 36.84511 | 10.21805 | 33 ft | 4 kts | 39° |
| 2026-05-08 16:51 | 36.84493 | 10.21787 | 30 ft | 4 kts | 21° |
| 2026-05-08 16:51 | 36.84472 | 10.21790 | 30 ft | 4 kts | 316° |
| 2026-05-08 16:52 | 36.84460 | 10.21816 | 30 ft | 4 kts | 283° |
| 2026-05-08 16:52 | 36.84453 | 10.21849 | 30 ft | 4 kts | 283° |
| 2026-05-08 16:52 | 36.84447 | 10.21882 | 30 ft | 4 kts | 283° |
| 2026-05-08 16:52 | 36.84441 | 10.21915 | 30 ft | 4 kts | 283° |
| 2026-05-08 16:53 | 36.84436 | 10.21978 | 30 ft | 4 kts | 252° |
| 2026-05-08 16:53 | 36.84447 | 10.22007 | 30 ft | 4 kts | 231° |
| 2026-05-08 16:53 | 36.84466 | 10.22031 | 30 ft | 4 kts | 217° |
| 2026-05-08 16:54 | 36.84469 | 10.22035 | 30 ft | 0 kts | 216° |
| 2026-05-08 16:55 | 36.84468 | 10.22033 | 30 ft | 2 kts | 216° |
| 2026-05-08 16:56 | 36.84465 | 10.22030 | 30 ft | 2 kts | 218° |
| 2026-05-08 16:56 | 36.84407 | 10.21978 | 30 ft | 21 kts | 198° |
| 2026-05-08 16:56 | 36.84270 | 10.21937 | 30 ft | 20 kts | 191° |
| 2026-05-08 16:57 | 36.84140 | 10.21902 | 30 ft | 18 kts | 192° |
| 2026-05-08 16:57 | 36.84021 | 10.21872 | 30 ft | 17 kts | 192° |
| 2026-05-08 16:57 | 36.83915 | 10.21872 | 30 ft | 15 kts | 137° |
| 2026-05-08 16:57 | 36.83889 | 10.21984 | 30 ft | 15 kts | 103° |
| 2026-05-08 16:58 | 36.83866 | 10.22169 | 30 ft | 24 kts | 81° |
| 2026-05-08 16:58 | 36.83943 | 10.22349 | 31 ft | 24 kts | 44° |
| 2026-05-08 16:58 | 36.84123 | 10.22432 | 32 ft | 39 kts | 13° |
| 2026-05-08 16:58 | 36.84595 | 10.22557 | 28 ft | 101 kts | 12° |
| 2026-05-08 16:59 | 36.85452 | 10.22795 | 43 ft | 151 kts | 9° |
| 2026-05-08 16:59 | 36.86503 | 10.23083 | 580 ft | 156 kts | 12° |
| 2026-05-08 16:59 | 36.87565 | 10.23376 | 1310 ft | 155 kts | 12° |
| 2026-05-08 16:59 | 36.88618 | 10.23664 | 1997 ft | 154 kts | 10° |
| 2026-05-08 17:00 | 36.89653 | 10.23947 | 2595 ft | 154 kts | 8° |
| 2026-05-08 17:00 | 36.90708 | 10.24234 | 3187 ft | 155 kts | 8° |
| 2026-05-08 17:00 | 36.91764 | 10.24520 | 3752 ft | 155 kts | 7° |
| 2026-05-08 17:00 | 36.92807 | 10.24802 | 4316 ft | 152 kts | 5° |
| 2026-05-08 17:01 | 36.93821 | 10.25079 | 4898 ft | 145 kts | 4° |
| 2026-05-08 17:01 | 36.94792 | 10.25240 | 5247 ft | 142 kts | 340° |
| 2026-05-08 17:01 | 36.95750 | 10.24826 | 5367 ft | 155 kts | 321° |
| 2026-05-08 17:01 | 36.96591 | 10.23860 | 5514 ft | 174 kts | 300° |
| 2026-05-08 17:02 | 36.97037 | 10.22379 | 5727 ft | 195 kts | 275° |
| 2026-05-08 17:02 | 36.96783 | 10.20609 | 6021 ft | 224 kts | 245° |
| 2026-05-08 17:02 | 36.95613 | 10.19163 | 6464 ft | 257 kts | 211° |
| 2026-05-08 17:02 | 36.93898 | 10.18412 | 7198 ft | 268 kts | 203° |
| 2026-05-08 17:03 | 36.92068 | 10.17824 | 7996 ft | 278 kts | 194° |
| 2026-05-08 17:03 | 36.90092 | 10.18182 | 8789 ft | 302 kts | 162° |
| 2026-05-08 17:03 | 36.88233 | 10.19527 | 9646 ft | 313 kts | 151° |
| 2026-05-08 17:03 | 36.86485 | 10.21199 | 10417 ft | 320 kts | 146° |
| 2026-05-08 17:04 | 36.84727 | 10.22915 | 11141 ft | 320 kts | 156° |
| 2026-05-08 17:04 | 36.82774 | 10.24191 | 11908 ft | 318 kts | 162° |
| 2026-05-08 17:04 | 36.80750 | 10.25304 | 12714 ft | 318 kts | 165° |
| 2026-05-08 17:04 | 36.78689 | 10.26314 | 13497 ft | 319 kts | 166° |
| 2026-05-08 17:05 | 36.76596 | 10.27280 | 14208 ft | 321 kts | 167° |
| 2026-05-08 17:05 | 36.74491 | 10.28235 | 14874 ft | 323 kts | 167° |
| 2026-05-08 17:05 | 36.73086 | 10.28876 | 15324 ft | 324 kts | 167° |
| 2026-05-08 17:05 | 36.70963 | 10.29854 | 16004 ft | 326 kts | 167° |
| 2026-05-08 17:06 | 36.68829 | 10.30849 | 16688 ft | 328 kts | 167° |
| 2026-05-08 17:06 | 36.66690 | 10.31856 | 17373 ft | 330 kts | 168° |
| 2026-05-08 17:06 | 36.64534 | 10.32877 | 18054 ft | 332 kts | 168° |
| 2026-05-08 17:06 | 36.62364 | 10.33906 | 18672 ft | 335 kts | 168° |
| 2026-05-08 17:07 | 36.60177 | 10.34944 | 19263 ft | 338 kts | 168° |
| 2026-05-08 17:07 | 36.57991 | 10.35979 | 19801 ft | 342 kts | 168° |
| 2026-05-08 17:07 | 36.55756 | 10.37035 | 20328 ft | 346 kts | 168° |
| 2026-05-08 17:07 | 36.53493 | 10.38099 | 20844 ft | 349 kts | 168° |
| 2026-05-08 17:08 | 36.51208 | 10.39171 | 21395 ft | 353 kts | 167° |
| 2026-05-08 17:08 | 36.48893 | 10.40257 | 21926 ft | 356 kts | 167° |
| 2026-05-08 17:08 | 36.46563 | 10.41355 | 22438 ft | 360 kts | 167° |
| 2026-05-08 17:08 | 36.44207 | 10.42464 | 22906 ft | 364 kts | 167° |
| 2026-05-08 17:09 | 36.41831 | 10.43583 | 23011 ft | 365 kts | 167° |
| 2026-05-08 17:09 | 36.39454 | 10.44706 | 23028 ft | 365 kts | 167° |
| 2026-05-08 17:09 | 36.37078 | 10.45832 | 23024 ft | 365 kts | 167° |
| 2026-05-08 17:09 | 36.34705 | 10.46971 | 23020 ft | 365 kts | 167° |
| 2026-05-08 17:10 | 36.32335 | 10.48120 | 23018 ft | 366 kts | 167° |
| 2026-05-08 17:10 | 36.29972 | 10.49268 | 23015 ft | 366 kts | 167° |
| 2026-05-08 17:10 | 36.27628 | 10.50404 | 22999 ft | 365 kts | 167° |
| 2026-05-08 17:10 | 36.25232 | 10.51552 | 23009 ft | 365 kts | 167° |
| 2026-05-08 17:11 | 36.22892 | 10.52659 | 23011 ft | 365 kts | 167° |
| 2026-05-08 17:11 | 36.20518 | 10.53773 | 23006 ft | 364 kts | 167° |
| 2026-05-08 17:11 | 36.18145 | 10.54883 | 23007 ft | 364 kts | 167° |
| 2026-05-08 17:11 | 36.15777 | 10.55990 | 23006 ft | 365 kts | 167° |
| 2026-05-08 17:12 | 36.13396 | 10.57107 | 23006 ft | 365 kts | 167° |
| 2026-05-08 17:12 | 36.11021 | 10.58221 | 23001 ft | 365 kts | 167° |
| 2026-05-08 17:12 | 36.08635 | 10.59341 | 23006 ft | 365 kts | 167° |
| 2026-05-08 17:12 | 36.06289 | 10.60442 | 23008 ft | 364 kts | 167° |
| 2026-05-08 17:13 | 36.03923 | 10.61550 | 23010 ft | 364 kts | 167° |
| 2026-05-08 17:13 | 36.01526 | 10.62675 | 22996 ft | 364 kts | 167° |
| 2026-05-08 17:13 | 35.99189 | 10.63770 | 23000 ft | 364 kts | 167° |
| 2026-05-08 17:13 | 35.96820 | 10.64880 | 23001 ft | 364 kts | 167° |
| 2026-05-08 17:14 | 35.94452 | 10.65990 | 23007 ft | 364 kts | 167° |
| 2026-05-08 17:14 | 35.92084 | 10.67097 | 23009 ft | 364 kts | 167° |
| 2026-05-08 17:14 | 35.89715 | 10.68201 | 23014 ft | 363 kts | 167° |
| 2026-05-08 17:14 | 35.87341 | 10.69305 | 23011 ft | 363 kts | 167° |
| 2026-05-08 17:15 | 35.84974 | 10.70406 | 23000 ft | 363 kts | 167° |
| 2026-05-08 17:15 | 35.82607 | 10.71506 | 22999 ft | 363 kts | 167° |
| 2026-05-08 17:15 | 35.80243 | 10.72609 | 22997 ft | 363 kts | 167° |
| 2026-05-08 17:15 | 35.77902 | 10.73681 | 22993 ft | 361 kts | 169° |
| 2026-05-08 17:16 | 35.75491 | 10.74415 | 22970 ft | 353 kts | 179° |
| 2026-05-08 17:16 | 35.73066 | 10.74673 | 22970 ft | 346 kts | 187° |
| 2026-05-08 17:16 | 35.70670 | 10.74559 | 22979 ft | 344 kts | 190° |
| 2026-05-08 17:16 | 35.68275 | 10.74412 | 22980 ft | 345 kts | 190° |
| 2026-05-08 17:17 | 35.65884 | 10.74267 | 22980 ft | 345 kts | 190° |
| 2026-05-08 17:17 | 35.63483 | 10.74125 | 22986 ft | 345 kts | 190° |
| 2026-05-08 17:17 | 35.61080 | 10.73986 | 22980 ft | 346 kts | 190° |
| 2026-05-08 17:17 | 35.58674 | 10.73848 | 22988 ft | 346 kts | 190° |
| 2026-05-08 17:18 | 35.56266 | 10.73713 | 22984 ft | 346 kts | 190° |
| 2026-05-08 17:18 | 35.53856 | 10.73579 | 23002 ft | 347 kts | 190° |
| 2026-05-08 17:18 | 35.51479 | 10.73448 | 23006 ft | 346 kts | 190° |
| 2026-05-08 17:18 | 35.49070 | 10.73314 | 23008 ft | 346 kts | 190° |
| 2026-05-08 17:19 | 35.46661 | 10.73178 | 23007 ft | 346 kts | 190° |
| 2026-05-08 17:19 | 35.44253 | 10.73041 | 23000 ft | 346 kts | 190° |
| 2026-05-08 17:19 | 35.41851 | 10.72901 | 23000 ft | 346 kts | 190° |
| 2026-05-08 17:19 | 35.39429 | 10.72764 | 23008 ft | 346 kts | 190° |
| 2026-05-08 17:20 | 35.37020 | 10.72633 | 23009 ft | 346 kts | 190° |
| 2026-05-08 17:20 | 35.34604 | 10.72504 | 23009 ft | 346 kts | 190° |
| 2026-05-08 17:20 | 35.32214 | 10.72379 | 23010 ft | 346 kts | 190° |
| 2026-05-08 17:20 | 35.29790 | 10.72251 | 23010 ft | 347 kts | 190° |
| 2026-05-08 17:21 | 35.27411 | 10.72124 | 22994 ft | 347 kts | 190° |
| 2026-05-08 17:21 | 35.24999 | 10.71997 | 22991 ft | 347 kts | 190° |
| 2026-05-08 17:21 | 35.22586 | 10.71871 | 22992 ft | 347 kts | 190° |
| 2026-05-08 17:21 | 35.20159 | 10.71741 | 22995 ft | 347 kts | 190° |
| 2026-05-08 17:22 | 35.17771 | 10.71612 | 22994 ft | 347 kts | 190° |
| 2026-05-08 17:22 | 35.15349 | 10.71482 | 22996 ft | 347 kts | 190° |
| 2026-05-08 17:22 | 35.12933 | 10.71355 | 22997 ft | 347 kts | 190° |
| 2026-05-08 17:22 | 35.10511 | 10.71226 | 22999 ft | 347 kts | 190° |
| 2026-05-08 17:23 | 35.08088 | 10.71097 | 23000 ft | 347 kts | 190° |
| 2026-05-08 17:23 | 35.05700 | 10.70968 | 22994 ft | 347 kts | 190° |
| 2026-05-08 17:23 | 35.03278 | 10.70837 | 22994 ft | 347 kts | 190° |
| 2026-05-08 17:23 | 35.00864 | 10.70704 | 22977 ft | 347 kts | 189° |
| 2026-05-08 17:24 | 34.98426 | 10.70569 | 22988 ft | 357 kts | 189° |
| 2026-05-08 17:24 | 34.95879 | 10.70418 | 22991 ft | 376 kts | 189° |
| 2026-05-08 17:24 | 34.93241 | 10.70250 | 22989 ft | 393 kts | 189° |
| 2026-05-08 17:24 | 34.90450 | 10.70063 | 22987 ft | 410 kts | 189° |
| 2026-05-08 17:25 | 34.87551 | 10.69866 | 22977 ft | 424 kts | 189° |
| 2026-05-08 17:25 | 34.84551 | 10.69670 | 22977 ft | 436 kts | 189° |
| 2026-05-08 17:25 | 34.81484 | 10.69480 | 22972 ft | 444 kts | 188° |
| 2026-05-08 17:25 | 34.78386 | 10.69298 | 22973 ft | 446 kts | 188° |
| 2026-05-08 17:26 | 34.75271 | 10.69115 | 22783 ft | 447 kts | 188° |
| 2026-05-08 17:26 | 34.72184 | 10.68950 | 21744 ft | 450 kts | 185° |
| 2026-05-08 17:26 | 34.69056 | 10.69160 | 20993 ft | 448 kts | 180° |
| 2026-05-08 17:26 | 34.65963 | 10.69474 | 20249 ft | 443 kts | 180° |
| 2026-05-08 17:27 | 34.62910 | 10.69779 | 19517 ft | 439 kts | 180° |
| 2026-05-08 17:27 | 34.59879 | 10.70078 | 18830 ft | 435 kts | 179° |
| 2026-05-08 17:27 | 34.56875 | 10.70373 | 18144 ft | 431 kts | 179° |
| 2026-05-08 17:27 | 34.53902 | 10.70666 | 17468 ft | 425 kts | 179° |
| 2026-05-08 17:28 | 34.50971 | 10.70955 | 16851 ft | 419 kts | 179° |
| 2026-05-08 17:28 | 34.48090 | 10.71237 | 16288 ft | 413 kts | 179° |
| 2026-05-08 17:28 | 34.45229 | 10.71516 | 15734 ft | 409 kts | 179° |
| 2026-05-08 17:28 | 34.42417 | 10.71791 | 15189 ft | 404 kts | 179° |
| 2026-05-08 17:29 | 34.39621 | 10.72065 | 14652 ft | 400 kts | 179° |
| 2026-05-08 17:29 | 34.36862 | 10.72336 | 14111 ft | 395 kts | 179° |
| 2026-05-08 17:29 | 34.34159 | 10.72604 | 13535 ft | 392 kts | 179° |
| 2026-05-08 17:29 | 34.31446 | 10.72875 | 12953 ft | 387 kts | 179° |
| 2026-05-08 17:30 | 34.28772 | 10.73143 | 12367 ft | 383 kts | 179° |
| 2026-05-08 17:30 | 34.26128 | 10.73407 | 11758 ft | 379 kts | 179° |
| 2026-05-08 17:30 | 34.23503 | 10.73668 | 11177 ft | 375 kts | 179° |
| 2026-05-08 17:30 | 34.20966 | 10.73916 | 11013 ft | 359 kts | 179° |
| 2026-05-08 17:31 | 34.18529 | 10.74155 | 10894 ft | 343 kts | 179° |
| 2026-05-08 17:31 | 34.16189 | 10.74386 | 10770 ft | 329 kts | 179° |
| 2026-05-08 17:31 | 34.13969 | 10.74607 | 10650 ft | 316 kts | 180° |
| 2026-05-08 17:31 | 34.11811 | 10.74821 | 10531 ft | 304 kts | 180° |
| 2026-05-08 17:32 | 34.09730 | 10.75026 | 10372 ft | 295 kts | 180° |
| 2026-05-08 17:32 | 34.07729 | 10.75219 | 10098 ft | 291 kts | 180° |
| 2026-05-08 17:32 | 34.05720 | 10.75412 | 9760 ft | 289 kts | 180° |
| 2026-05-08 17:32 | 34.03721 | 10.75602 | 9368 ft | 287 kts | 180° |
| 2026-05-08 17:33 | 34.01732 | 10.75794 | 8984 ft | 286 kts | 180° |
| 2026-05-08 17:33 | 33.99751 | 10.75986 | 8583 ft | 285 kts | 179° |
| 2026-05-08 17:33 | 33.97771 | 10.76180 | 8210 ft | 283 kts | 179° |
| 2026-05-08 17:33 | 33.95810 | 10.76374 | 7803 ft | 282 kts | 179° |
| 2026-05-08 17:34 | 33.93849 | 10.76569 | 7394 ft | 281 kts | 179° |
| 2026-05-08 17:34 | 33.91922 | 10.76699 | 7007 ft | 277 kts | 188° |
| 2026-05-08 17:34 | 33.90104 | 10.76128 | 6593 ft | 268 kts | 211° |
| 2026-05-08 17:34 | 33.88658 | 10.74778 | 6155 ft | 262 kts | 233° |
| 2026-05-08 17:35 | 33.87776 | 10.72906 | 5819 ft | 253 kts | 254° |
| 2026-05-08 17:35 | 33.87517 | 10.70876 | 5708 ft | 239 kts | 268° |
| 2026-05-08 17:35 | 33.87450 | 10.68921 | 5569 ft | 227 kts | 268° |
| 2026-05-08 17:35 | 33.87387 | 10.67065 | 5453 ft | 217 kts | 268° |
| 2026-05-08 17:36 | 33.87326 | 10.65318 | 5332 ft | 207 kts | 268° |
| 2026-05-08 17:36 | 33.87267 | 10.63625 | 5210 ft | 198 kts | 268° |
| 2026-05-08 17:36 | 33.87210 | 10.62002 | 5038 ft | 191 kts | 268° |
| 2026-05-08 17:36 | 33.87154 | 10.60412 | 4803 ft | 189 kts | 269° |
| 2026-05-08 17:37 | 33.87099 | 10.58832 | 4528 ft | 189 kts | 269° |
| 2026-05-08 17:37 | 33.87044 | 10.57257 | 4274 ft | 188 kts | 269° |
| 2026-05-08 17:37 | 33.86990 | 10.55678 | 3995 ft | 188 kts | 268° |
| 2026-05-08 17:37 | 33.86775 | 10.54143 | 3740 ft | 188 kts | 246° |
| 2026-05-08 17:38 | 33.85930 | 10.52946 | 3457 ft | 194 kts | 214° |
| 2026-05-08 17:38 | 33.84626 | 10.52508 | 3217 ft | 197 kts | 179° |
| 2026-05-08 17:38 | 33.83376 | 10.53000 | 3123 ft | 190 kts | 147° |
| 2026-05-08 17:38 | 33.82557 | 10.54201 | 2937 ft | 186 kts | 113° |
| 2026-05-08 17:39 | 33.82408 | 10.55753 | 2592 ft | 190 kts | 77° |
| 2026-05-08 17:39 | 33.82948 | 10.57167 | 2349 ft | 184 kts | 56° |
| 2026-05-08 17:39 | 33.83612 | 10.58448 | 2120 ft | 179 kts | 58° |
| 2026-05-08 17:39 | 33.84257 | 10.59709 | 1918 ft | 174 kts | 58° |
| 2026-05-08 17:40 | 33.84883 | 10.60934 | 1737 ft | 168 kts | 60° |
| 2026-05-08 17:40 | 33.85496 | 10.62135 | 1648 ft | 168 kts | 59° |
| 2026-05-08 17:40 | 33.86099 | 10.63317 | 1609 ft | 169 kts | 59° |
| 2026-05-08 17:40 | 33.86713 | 10.64516 | 1613 ft | 168 kts | 59° |
| 2026-05-08 17:41 | 33.87200 | 10.65779 | 1602 ft | 167 kts | 77° |
| 2026-05-08 17:41 | 33.87279 | 10.67170 | 1599 ft | 169 kts | 87° |
| 2026-05-08 17:41 | 33.87312 | 10.68571 | 1316 ft | 162 kts | 85° |
| 2026-05-08 17:41 | 33.87345 | 10.69871 | 1055 ft | 149 kts | 86° |
| 2026-05-08 17:42 | 33.87375 | 10.71045 | 854 ft | 137 kts | 88° |
| 2026-05-08 17:42 | 33.87405 | 10.72198 | 674 ft | 134 kts | 85° |
| 2026-05-08 17:42 | 33.87433 | 10.73306 | 507 ft | 130 kts | 85° |
| 2026-05-08 17:42 | 33.87460 | 10.74372 | 327 ft | 127 kts | 85° |
| 2026-05-08 17:43 | 33.87486 | 10.75439 | 145 ft | 126 kts | 85° |
| 2026-05-08 17:43 | 33.87515 | 10.76492 | 38 ft | 124 kts | 85° |
| 2026-05-08 17:43 | 33.87540 | 10.77402 | 21 ft | 85 kts | 89° |
| 2026-05-08 17:43 | 33.87551 | 10.77908 | 23 ft | 36 kts | 88° |
| 2026-05-08 17:44 | 33.87555 | 10.78075 | 25 ft | 16 kts | 88° |
| 2026-05-08 17:44 | 33.87559 | 10.78210 | 25 ft | 16 kts | 88° |
| 2026-05-08 17:44 | 33.87561 | 10.78354 | 23 ft | 19 kts | 89° |
| 2026-05-08 17:44 | 33.87564 | 10.78507 | 24 ft | 17 kts | 89° |
| 2026-05-08 17:45 | 33.87496 | 10.78594 | 27 ft | 16 kts | 174° |
| 2026-05-08 17:45 | 33.87405 | 10.78551 | 25 ft | 14 kts | 249° |
| 2026-05-08 17:45 | 33.87396 | 10.78437 | 25 ft | 13 kts | 270° |
| 2026-05-08 17:45 | 33.87395 | 10.78330 | 25 ft | 12 kts | 268° |
| 2026-05-08 17:46 | 33.87400 | 10.78208 | 24 ft | 18 kts | 275° |
| 2026-05-08 17:46 | 33.87398 | 10.78057 | 23 ft | 18 kts | 269° |
| 2026-05-08 17:46 | 33.87394 | 10.77915 | 23 ft | 16 kts | 266° |
| 2026-05-08 17:46 | 33.87391 | 10.77782 | 23 ft | 16 kts | 269° |
| 2026-05-08 17:47 | 33.87385 | 10.77683 | 22 ft | 3 kts | 233° |
| 2026-05-08 17:47 | 33.87358 | 10.77677 | 22 ft | 6 kts | 181° |
| 2026-05-08 17:47 | 33.87330 | 10.77676 | 22 ft | 0 kts | 181° |